createdAt,value
2023-04-26T00:04:23.695Z,5.13
2023-04-26T00:09:27.045Z,4.38
2023-04-26T00:14:30.154Z,5.00
2023-04-26T00:19:34.613Z,4.80
2023-04-26T00:24:37.821Z,4.95
2023-04-26T00:29:40.988Z,5.20
2023-04-26T00:34:45.471Z,4.95
2023-04-26T00:39:48.569Z,4.75
2023-04-26T00:44:55.254Z,5.10
2023-04-26T00:50:00.397Z,5.32
2023-04-26T00:55:03.480Z,5.53
2023-04-26T01:00:08.071Z,5.10
2023-04-26T01:05:12.613Z,5.40
2023-04-26T01:10:15.788Z,5.72
2023-04-26T01:15:18.996Z,5.40
2023-04-26T01:20:23.575Z,5.80
2023-04-26T01:25:28.148Z,6.05
2023-04-26T01:30:31.297Z,5.57
2023-04-26T01:35:34.605Z,6.10
2023-04-26T01:40:40.079Z,5.22
2023-04-26T01:45:43.117Z,5.68
2023-04-26T01:51:07.564Z,6.70
2023-04-26T01:56:12.072Z,6.70
2023-04-26T02:01:15.180Z,7.28
2023-04-26T02:06:21.318Z,6.90
2023-04-26T02:11:27.009Z,8.18
2023-04-26T02:16:30.416Z,7.90
2023-04-26T02:21:33.619Z,7.75
2023-04-26T02:26:38.060Z,7.65
2023-04-26T02:31:41.209Z,8.45
2023-04-26T02:36:44.363Z,8.02
2023-04-26T02:41:49.028Z,8.07
2023-04-26T02:46:52.246Z,8.63
2023-04-26T02:51:55.437Z,8.75
2023-04-26T02:56:59.968Z,9.10
2023-04-26T03:02:03.982Z,8.55
2023-04-26T03:07:07.089Z,8.75
2023-04-26T03:12:11.610Z,9.75
2023-04-26T03:17:14.906Z,9.48
2023-04-26T03:22:18.404Z,9.50
2023-04-26T03:27:22.917Z,9.95
2023-04-26T03:32:26.010Z,9.75
2023-04-26T03:37:29.293Z,9.88
2023-04-26T03:42:40.097Z,10.07
2023-04-26T03:47:43.244Z,11.15
2023-04-26T03:52:46.617Z,10.80
2023-04-26T03:57:51.114Z,9.82
2023-04-26T04:02:54.463Z,11.50
2023-04-26T04:08:01.832Z,11.07
2023-04-26T04:13:06.442Z,11.15
2023-04-26T04:18:09.749Z,10.88
2023-04-26T04:23:12.917Z,11.32
2023-04-26T04:28:18.579Z,10.40
2023-04-26T04:33:22.437Z,11.35
2023-04-26T04:38:26.220Z,11.90
2023-04-26T04:43:31.411Z,12.05
2023-04-26T04:48:35.618Z,11.65
2023-04-26T04:53:38.849Z,13.07
2023-04-26T04:58:43.362Z,12.57
2023-04-26T05:03:46.725Z,10.77
2023-04-26T05:08:50.200Z,12.07
2023-04-26T05:13:56.102Z,13.02
2023-04-26T05:18:59.405Z,11.95
2023-04-26T05:24:02.954Z,11.48
2023-04-26T05:29:07.470Z,11.77
2023-04-26T05:34:36.793Z,11.38
2023-04-26T05:39:39.958Z,12.70
2023-04-26T05:44:44.493Z,11.85
2023-04-26T05:49:48.884Z,13.07
2023-04-26T05:54:52.901Z,13.88
2023-04-26T05:59:57.447Z,10.00
2023-04-26T06:05:02.001Z,10.63
2023-04-26T06:10:05.943Z,10.10
2023-04-26T06:15:12.325Z,10.20
2023-04-26T06:20:16.352Z,8.55
2023-04-26T06:25:19.794Z,16.13
2023-04-26T06:30:24.426Z,9.65
2023-04-26T06:35:28.366Z,9.07
2023-04-26T06:40:31.591Z,7.95
2023-04-26T06:45:36.994Z,8.25
2023-04-26T06:50:40.433Z,8.95
2023-04-26T06:55:43.683Z,7.47
2023-04-26T07:00:48.272Z,7.53
2023-04-26T07:05:51.561Z,9.63
2023-04-26T07:10:55.442Z,6.40
2023-04-26T07:15:59.968Z,5.40
2023-04-26T07:21:03.052Z,5.90
2023-04-26T07:26:06.183Z,4.78
2023-04-26T07:31:11.035Z,4.13
2023-04-26T07:36:14.264Z,4.57
2023-04-26T07:41:17.860Z,3.92
2023-04-26T07:46:22.663Z,4.38
2023-04-26T07:51:26.656Z,2.47
2023-04-26T07:56:29.814Z,2.38
2023-04-26T08:01:34.250Z,2.67
2023-04-26T08:06:38.679Z,2.67
2023-04-26T08:11:42.047Z,3.08
2023-04-26T08:16:46.615Z,2.95
2023-04-26T08:21:49.749Z,3.15
2023-04-26T08:26:52.806Z,1.77
2023-04-26T08:31:57.362Z,1.90
2023-04-26T08:37:00.724Z,2.67
2023-04-26T08:42:08.395Z,2.03
2023-04-26T08:47:15.251Z,2.13
2023-04-26T08:52:23.041Z,1.90
2023-04-26T08:57:26.713Z,1.65
2023-04-26T09:02:31.573Z,1.80
2023-04-26T09:07:38.471Z,1.75
2023-04-26T09:12:41.858Z,1.60
2023-04-26T09:17:46.523Z,4.03
2023-04-26T09:22:50.367Z,2.63
2023-04-26T09:27:53.465Z,2.30
2023-04-26T09:32:59.287Z,2.35
2023-04-26T09:38:11.028Z,1.73
2023-04-26T09:43:17.053Z,1.95
2023-04-26T09:48:23.243Z,2.08
2023-04-26T09:53:28.147Z,1.80
2023-04-26T09:58:31.548Z,2.50
2023-04-26T10:03:37.458Z,2.35
2023-04-26T10:08:41.079Z,2.72
2023-04-26T10:13:44.899Z,31.58
2023-04-26T10:18:51.077Z,3.58
2023-04-26T10:23:54.748Z,2.85
2023-04-26T10:29:02.568Z,3.72
2023-04-26T10:34:22.959Z,2.95
2023-04-26T10:39:28.181Z,3.13
2023-04-26T10:44:38.877Z,2.75
2023-04-26T10:49:48.439Z,2.78
2023-04-26T10:54:55.813Z,2.72
2023-04-26T11:00:18.685Z,2.35
2023-04-26T11:05:37.540Z,4.07
2023-04-26T11:10:41.105Z,6.55
2023-04-26T11:15:44.214Z,2.47
2023-04-26T11:20:48.813Z,2.10
2023-04-26T11:25:52.083Z,2.72
2023-04-26T11:30:55.876Z,1.98
2023-04-26T11:36:00.395Z,2.63
2023-04-26T11:41:04.239Z,5.28
2023-04-26T11:46:10.950Z,2.30
2023-04-26T11:51:15.478Z,2.10
2023-04-26T11:56:19.303Z,2.25
2023-04-26T12:01:23.537Z,2.83
2023-04-26T12:06:30.703Z,2.00
2023-04-26T12:11:33.809Z,2.33
2023-04-26T12:16:37.333Z,3.00
2023-04-26T12:21:44.875Z,2.53
2023-04-26T12:26:48.884Z,2.88
2023-04-26T12:31:52.078Z,3.05
2023-04-26T12:36:56.617Z,3.38
2023-04-26T12:42:00.180Z,2.78
2023-04-26T12:47:03.331Z,2.45
2023-04-26T12:52:07.910Z,2.20
2023-04-26T12:57:11.295Z,2.75
2023-04-26T13:02:14.528Z,2.55
2023-04-26T13:07:19.273Z,2.55
2023-04-26T13:12:22.386Z,2.00
2023-04-26T13:17:26.489Z,2.05
2023-04-26T13:22:31.031Z,2.50
2023-04-26T13:27:34.136Z,2.88
2023-04-26T13:32:37.269Z,3.47
2023-04-26T13:37:42.408Z,3.35
2023-04-26T13:42:45.500Z,3.15
2023-04-26T13:47:48.704Z,4.00
2023-04-26T13:52:53.231Z,2.20
2023-04-26T13:57:56.453Z,2.97
2023-04-26T14:02:59.718Z,2.65
2023-04-26T14:08:04.422Z,2.47
2023-04-26T14:13:07.491Z,2.65
2023-04-26T14:18:11.297Z,2.22
2023-04-26T14:23:15.916Z,2.53
2023-04-26T14:28:19.068Z,10.57
2023-04-26T14:33:24.416Z,2.58
2023-04-26T14:38:29.658Z,2.42
2023-04-26T14:43:33.694Z,2.00
2023-04-26T14:48:36.796Z,2.80
2023-04-26T14:53:41.415Z,2.80
2023-04-26T14:58:44.543Z,2.58
2023-04-26T15:03:47.765Z,2.60
2023-04-26T15:08:52.306Z,2.55
2023-04-26T15:13:55.467Z,2.95
2023-04-26T15:18:59.054Z,2.30
2023-04-26T15:24:03.538Z,5.75
2023-04-26T15:29:06.638Z,2.60
2023-04-26T15:34:09.927Z,2.55
2023-04-26T15:39:14.345Z,2.42
2023-04-26T15:44:17.423Z,2.70
2023-04-26T15:49:20.502Z,2.58
2023-04-26T15:54:24.963Z,2.58
2023-04-26T15:59:29.942Z,2.70
2023-04-26T16:04:33.276Z,3.08
2023-04-26T16:09:38.034Z,6.55
2023-04-26T16:14:42.278Z,3.70
2023-04-26T16:19:45.439Z,3.17
2023-04-26T16:24:49.915Z,3.15
2023-04-26T16:29:53.532Z,2.88
2023-04-26T16:34:56.900Z,3.80
2023-04-26T16:40:01.552Z,3.30
2023-04-26T16:45:05.077Z,6.28
2023-04-26T16:50:08.733Z,3.10
2023-04-26T16:55:13.173Z,3.28
2023-04-26T17:00:18.231Z,2.85
2023-04-26T17:05:21.574Z,2.65
2023-04-26T17:10:26.703Z,3.60
2023-04-26T17:15:30.384Z,2.92
2023-04-26T17:20:33.874Z,3.00
2023-04-26T17:25:38.273Z,2.85
2023-04-26T17:30:41.372Z,3.42
2023-04-26T17:35:44.663Z,3.38
2023-04-26T17:40:52.279Z,5.38
2023-04-26T17:45:55.576Z,3.53
2023-04-26T17:50:58.738Z,2.83
2023-04-26T17:56:07.182Z,2.83
2023-04-26T18:01:10.285Z,2.70
2023-04-26T18:06:13.641Z,2.22
2023-04-26T18:11:19.858Z,2.25
2023-04-26T18:16:24.353Z,2.10
2023-04-26T18:21:28.005Z,2.00
2023-04-26T18:26:32.519Z,1.50
2023-04-26T18:31:35.727Z,1.92
2023-04-26T18:36:38.933Z,1.45
2023-04-26T18:41:43.377Z,2.75
2023-04-26T18:46:46.730Z,2.03
2023-04-26T18:51:49.996Z,3.25
2023-04-26T18:56:54.664Z,2.05
2023-04-26T19:01:58.733Z,1.92
2023-04-26T19:07:02.049Z,2.53
2023-04-26T19:12:08.250Z,2.28
2023-04-26T19:17:11.439Z,1.80
2023-04-26T19:22:14.563Z,2.17
2023-04-26T19:27:19.196Z,2.80
2023-04-26T19:32:23.043Z,2.58
2023-04-26T19:37:26.389Z,1.92
2023-04-26T19:42:31.003Z,2.25
2023-04-26T19:47:34.193Z,2.20
2023-04-26T19:52:37.399Z,2.10
2023-04-26T19:57:42.201Z,1.88
2023-04-26T20:02:45.677Z,2.10
2023-04-26T20:07:48.954Z,1.80
2023-04-26T20:12:54.189Z,2.22
2023-04-26T20:17:57.708Z,1.83
2023-04-26T20:23:01.144Z,1.95
2023-04-26T20:28:05.997Z,2.83
2023-04-26T20:33:09.335Z,2.03
2023-04-26T20:38:12.896Z,1.75
2023-04-26T20:43:17.623Z,2.05
2023-04-26T20:48:21.066Z,2.00
2023-04-26T20:53:24.247Z,2.58
2023-04-26T20:58:29.837Z,2.38
2023-04-26T21:03:34.547Z,2.38
2023-04-26T21:08:37.873Z,2.05
2023-04-26T21:13:42.529Z,2.78
2023-04-26T21:18:45.910Z,2.88
2023-04-26T21:23:49.226Z,2.63
2023-04-26T21:28:53.760Z,2.40
2023-04-26T21:33:56.929Z,5.40
2023-04-26T21:39:00.113Z,2.78
2023-04-26T21:44:04.643Z,2.95
2023-04-26T21:49:08.273Z,3.65
2023-04-26T21:54:11.584Z,2.78
2023-04-26T21:59:16.329Z,2.80
2023-04-26T22:04:19.641Z,3.47
2023-04-26T22:09:22.881Z,3.13
2023-04-26T22:14:27.448Z,3.20
2023-04-26T22:19:30.738Z,3.83
2023-04-26T22:24:33.860Z,3.30
2023-04-26T22:29:38.356Z,3.55
2023-04-26T22:34:43.645Z,3.47
2023-04-26T22:39:47.243Z,3.58
2023-04-26T22:44:51.902Z,3.25
2023-04-26T22:49:55.093Z,3.58
2023-04-26T22:54:58.292Z,3.25
2023-04-26T23:00:04.340Z,3.40
2023-04-26T23:05:09.908Z,3.30
2023-04-26T23:10:13.270Z,4.00
2023-04-26T23:15:17.943Z,3.88
2023-04-26T23:20:21.164Z,4.15
2023-04-26T23:25:24.428Z,3.90
2023-04-26T23:30:29.013Z,4.47
2023-04-26T23:35:32.202Z,4.00
2023-04-26T23:40:37.053Z,4.38
2023-04-26T23:45:47.081Z,4.32
2023-04-26T23:50:50.345Z,3.63
2023-04-26T23:55:53.420Z,4.13
